Messages - map view · info · telemetry · weather · raw · status · beacons · messages · bulletins · browse · moving · my account
Callsign:
Show:

Loading message packets...

APRS messages are stored for 14 days. It is possible to search using wildcards (*?) after a prefix.

2019-04-22 14:13:37 EDT: SP9MLI-9>SQ2CDE-9: gs
2019-04-22 14:13:41 EDT: K8OCL-1>K8OCL-9: testing
2019-04-22 14:14:00 EDT: G0RSQ>G4FKH: A,-96.1,-103.2,-104.9,B,-89.9,-95.8,-96.8,C,-94.3,-110.5,-111.4,D,-95.4,-104,-105.1,E,-107.7,-112.9,-114
2019-04-22 14:14:38 EDT: SP9MLI-9>SQ2CDE-9: gs
2019-04-22 14:14:38 EDT: K8OCL-1>K8OCL-9: testing
2019-04-22 14:14:56 EDT: N7QME-2>N7QME: dew 49.0 45.9 49.2 44.2 42.6 43.3 44.7 39.4
2019-04-22 14:15:00 EDT: KD7IDY-14>W7UPS-9: Waaasssuuup?
2019-04-22 14:15:29 EDT: MTHOOD>N7QME: temps 49.0 100.2 44.4
2019-04-22 14:15:38 EDT: SP9MLI-9>SQ2CDE-9: gs
2019-04-22 14:15:39 EDT: SP9MLI-9>SQ2CDE-9: gs
2019-04-22 14:16:01 EDT: IK2WQH-7>EMAIL-2: ?APRSP
2019-04-22 14:16:19 EDT: DB0TS-10>DB0TS-9: T#001,000,000,000,000,000,00000000,Test
2019-04-22 14:16:31 EDT: K8OCL-1>K8OCL-9: testing
2019-04-22 14:16:38 EDT: SP9MLI-9>SQ2CDE-9: gs
2019-04-22 14:16:39 EDT: SP9MLI-9>SQ2CDE-9: gs
2019-04-22 14:17:01 EDT: KD7IDY-14>W7UPS-9: Waaasssuuup?
2019-04-22 14:17:12 EDT: VK2GJ-2>VK2GJ-7: Directs=[none]
2019-04-22 14:17:27 EDT: KM4KAW-9>KM4KAW: SitRep: 12.418 90.83f
2019-04-22 14:17:28 EDT: M0UKS-9>M0NPQ: do you know yourbeaconingevery 30 seconds
2019-04-22 14:17:34 EDT: ILLSTW>BOM-CANCL: 221817z,TSTORM,NSW_PW006>007
2019-04-22 14:17:40 EDT: SCTSTW>BOM-CANCL: 221817z,TSTORM,NSW_PW006>007
2019-04-22 14:18:16 EDT: VK2GJ-5>VK2GJ-7: Directs=[none]
2019-04-22 14:18:29 EDT: M0UKS-9>M0NPQ: do you know yourbeaconingevery 30 seconds
2019-04-22 14:19:29 EDT: M0UKS-9>M0NPQ: do you know yourbeaconingevery 30 seconds
2019-04-22 14:20:02 EDT: SP9UOB-10>EMAIL-2: sp9uob@verox.pl tracker boot 8 144800000 kHz last=50.26972,18.65110 rtc=36
2019-04-22 14:20:02 EDT: EMAIL-2>SP9UOB-10: Email sent to sp9uob@verox.pl
2019-04-22 14:20:30 EDT: M0UKS-9>M0NPQ: do you know yourbeaconingevery 30 seconds
2019-04-22 14:20:32 EDT: DF5KX-9>APRSPRO: REY1S1gtOSAgTVNHPzE1NTU5NTcyMzIuMzY1ODg=
2019-04-22 14:21:02 EDT: EMAIL-2>SP9UOB-10: Email sent to sp9uob@verox.pl
2019-04-22 14:21:13 EDT: VK2GJ-2>VK2GJ-7: Directs=VK2AMW-1
2019-04-22 14:21:13 EDT: WLNK-1>KG9B-8: You have 4 Winlink mail messages pending
2019-04-22 14:21:30 EDT: M0UKS-9>M0NPQ: do you know yourbeaconingevery 30 seconds
2019-04-22 14:22:00 EDT: DL0QW-12>JR2XJN: Welcome JR2XJN on summit JA/SH-010 Ryouzenzan (PM85EG). gl if you activate this reference. 73 de Camilla www.cqGMA.net
2019-04-22 14:22:02 EDT: EMAIL-2>SP9UOB-10: Email sent to sp9uob@verox.pl
2019-04-22 14:22:32 EDT: M0UKS-9>M0NPQ: do you know yourbeaconingevery 30 seconds
2019-04-22 14:22:42 EDT: SHLBTP>SHLBTP: Info - Cabinet Temp = 90.8F Vcc = 13.5V
2019-04-22 14:22:44 EDT: AS64636>DO4BZ: U:user-so.db0ahi # U:router.db0ahi [1]
2019-04-22 14:22:44 EDT: AS64636>DL1NE: U:user-so.db0ahi # U:router.db0ahi [2]
2019-04-22 14:22:45 EDT: AS64636>DG4OAE: U:user-so.db0ahi # U:router.db0ahi [3]
2019-04-22 14:23:03 EDT: EMAIL-2>SP9UOB-10: Email sent to sp9uob@verox.pl
2019-04-22 14:23:12 EDT: SP9UOB-10>EMAIL-2: sp9uob@verox.pl tracker boot 13 144800000 kHz last=50.26972,18.65110 rtc=36
2019-04-22 14:23:12 EDT: EMAIL-2>SP9UOB-10: Email sent to sp9uob@verox.pl
2019-04-22 14:24:11 EDT: G0RSQ>G4FKH: A,-93.2,-104.2,-105.4,B,-92.1,-96.1,-97.3,C,-104.6,-111.2,-112.8,D,-94.8,-103.9,-105,E,-108.9,-112.7,-113.9
2019-04-22 14:24:12 EDT: EMAIL-2>SP9UOB-10: Email sent to sp9uob@verox.pl
2019-04-22 14:24:13 EDT: VK2GJ-2>VK2GJ-7: Directs=VK2AMW-1 VK2BWI-3
2019-04-22 14:24:46 EDT: N7QME-2>N7QME: high voltage 14.70
2019-04-22 14:25:08 EDT: DN8KE>WLNK-1: wakeup
2019-04-22 14:25:09 EDT: WLNK-1>DN8KE: Login [914]:
2019-04-22 14:25:10 EDT: DB0TS-10>DB0TS-9: T#001,000,000,000,000,000,00000000,Test
2019-04-22 14:25:12 EDT: EMAIL-2>SP9UOB-10: Email sent to sp9uob@verox.pl
< previous
FAQ · Blog · Discussion group · Linking to aprs.fi · AIS sites · Service status · Database statistics · Advertising on aprs.fi · Technical details · API · Change log · Planned changes · Credits and thanks · Terms Of Service · iPhone/iPad APRS